Minnekata, South Dakota
Current Conditions -  °F | °C
As of 8:53 AM on Friday 28 Nov 2014 (Local Time) from KCUT Reporting Station
Clear Clear  
Wind Chill:   Ceiling: Unl
Heat Index:   Visibility: 10mi
Dew Point: -5°   Wind: 7mph
Humidity: 40%   Direction: 290°WNW
Pressure: 29.77"   Gusts: NA
Location:  43.346°N, 103.483°W
Report Text: KCUT 281553Z AUTO 29006KT 10SM CLR 08/M05 A2977 RMK AO2 SLP063 T00781050
Loading
Personal Weather Stations






























Interactive Weather Map New forecast layout! Learn more

10-Day Weather Forecast

Advertisements
Track Severe Weather on mobile